Time;durP1;ratioP1;P1;durP2;ratioP2;P2;SDS_P1;SDS_P2;PMS_P1;PMS_P2;Temp;Humidity;BMP_temperature;BMP_pressure;BME280_temperature;BME280_humidity;BME280_pressure;Samples;Min_cycle;Max_cycle;Signal;HPM_P1;HPM_P2
2024/01/27 00:05:12;;;;;;;6.82;2.35;;;;;;;14.15;59.54;101647.25;10576263;28;20100;-81
2024/01/27 00:10:34;;;;;;;6.78;2.53;;;;;;;14.11;59.78;101664.00;10569310;27;20046;-81
2024/01/27 00:15:58;;;;;;;6.03;2.92;;;;;;;14.11;58.63;101655.16;10577107;27;20051;-80
2024/01/27 00:21:20;;;;;;;6.78;2.38;;;;;;;14.19;58.88;101662.34;10575143;27;20043;-80
2024/01/27 00:26:43;;;;;;;6.60;2.63;;;;;;;14.26;58.74;101661.59;10547302;27;20062;-81
2024/01/27 00:32:08;;;;;;;4.80;2.50;;;;;;;14.51;57.17;101672.59;10561984;27;20056;-80
2024/01/27 00:37:31;;;;;;;8.27;2.70;;;;;;;14.67;56.54;101661.31;10577998;27;20039;-81
2024/01/27 00:42:55;;;;;;;8.18;2.60;;;;;;;14.90;58.27;101670.47;10581190;27;20047;-81
2024/01/27 00:48:19;;;;;;;5.32;2.95;;;;;;;15.13;70.05;101674.31;10567174;27;20066;-81
2024/01/27 00:53:41;;;;;;;6.38;2.25;;;;;;;15.05;77.36;101670.66;10578378;27;20043;-80
2024/01/27 00:59:04;;;;;;;4.90;1.90;;;;;;;14.65;81.25;101671.03;10580468;27;20039;-81
2024/01/27 01:04:28;;;;;;;8.30;2.58;;;;;;;14.59;79.73;101670.94;10593841;27;20137;-81
2024/01/27 01:09:50;;;;;;;8.40;2.35;;;;;;;14.59;80.75;101684.22;10540812;28;20043;-82
2024/01/27 01:15:13;;;;;;;5.57;2.15;;;;;;;14.73;79.75;101688.88;10547763;28;20059;-82
2024/01/27 01:20:37;;;;;;;6.30;2.42;;;;;;;14.88;76.83;101682.88;10532389;28;20132;-82
2024/01/27 01:25:59;;;;;;;7.90;2.38;;;;;;;14.79;73.46;101685.41;10571037;28;20045;-82
2024/01/27 01:31:22;;;;;;;9.05;1.90;;;;;;;14.71;67.07;101684.41;10581926;28;20047;-82
2024/01/27 01:36:47;;;;;;;4.50;2.00;;;;;;;14.61;60.48;101688.72;10567348;28;20043;-82
2024/01/27 01:42:10;;;;;;;5.25;2.22;;;;;;;14.55;58.08;101695.69;10562974;28;20094;-82
2024/01/27 01:47:33;;;;;;;5.03;2.05;;;;;;;14.66;55.67;101700.28;10593310;27;20047;-82
2024/01/27 01:52:58;;;;;;;3.90;2.10;;;;;;;14.70;55.08;101714.53;10576493;27;20054;-81
2024/01/27 01:58:20;;;;;;;5.82;2.05;;;;;;;14.70;53.92;101702.09;10568871;27;20047;-81
2024/01/27 02:03:53;;;;;;;11.90;4.68;;;;;;;14.72;53.29;101700.38;10584781;27;20080;-81
2024/01/27 02:09:17;;;;;;;6.35;3.17;;;;;;;14.81;51.95;101682.75;10586676;27;20063;-81
2024/01/27 02:14:39;;;;;;;5.93;2.40;;;;;;;14.81;51.39;101686.31;10588243;27;20047;-81
2024/01/27 02:20:02;;;;;;;4.47;3.03;;;;;;;14.86;51.65;101691.69;10554282;28;20259;-81
2024/01/27 02:25:26;;;;;;;8.88;2.90;;;;;;;15.06;49.98;101688.41;10575473;27;20047;-81
2024/01/27 02:30:48;;;;;;;6.18;2.70;;;;;;;15.21;54.91;101697.44;10570576;27;20165;-81
2024/01/27 02:36:11;;;;;;;10.90;2.65;;;;;;;15.18;69.34;101706.28;10593105;27;20055;-80
2024/01/27 02:41:38;;;;;;;9.13;3.30;;;;;;;15.09;74.41;101709.75;10583339;27;20040;-81
2024/01/27 02:47:01;;;;;;;6.10;3.60;;;;;;;14.80;77.56;101711.09;10587005;27;20066;-81
2024/01/27 02:52:24;;;;;;;6.63;2.40;;;;;;;14.66;79.91;101713.56;10563069;27;20290;-81
2024/01/27 02:57:47;;;;;;;6.35;2.05;;;;;;;14.59;70.86;101705.50;10569229;27;20052;-81
2024/01/27 03:03:10;;;;;;;6.32;1.90;;;;;;;14.45;61.85;101699.97;10579296;27;20044;-82
2024/01/27 03:08:32;;;;;;;3.45;1.67;;;;;;;14.40;57.93;101698.13;10577572;27;20135;-82
2024/01/27 03:13:56;;;;;;;9.18;2.05;;;;;;;14.39;55.10;101702.53;10577629;27;20053;-81
2024/01/27 03:19:19;;;;;;;3.72;1.80;;;;;;;14.47;54.42;101700.00;10585548;27;20052;-81
2024/01/27 03:24:41;;;;;;;3.78;2.00;;;;;;;14.49;53.13;101714.22;10567959;27;20043;-81
2024/01/27 03:30:07;;;;;;;6.60;2.22;;;;;;;14.50;52.94;101708.94;10598134;27;20076;-81
2024/01/27 03:35:29;;;;;;;3.13;2.00;;;;;;;14.56;52.89;101717.00;10567362;27;20484;-81
2024/01/27 03:40:52;;;;;;;7.85;2.67;;;;;;;14.71;53.09;101711.88;10552450;27;20376;-81
2024/01/27 03:46:16;;;;;;;5.47;2.10;;;;;;;14.70;55.68;101717.19;10579708;27;20718;-81
2024/01/27 03:51:38;;;;;;;8.32;2.22;;;;;;;14.81;57.01;101704.94;10524869;28;20043;-81
2024/01/27 03:57:00;;;;;;;4.82;2.40;;;;;;;14.91;57.09;101714.78;10512422;28;20060;-81
2024/01/27 04:02:25;;;;;;;5.93;2.42;;;;;;;15.05;56.81;101731.81;10527162;28;20048;-81
2024/01/27 04:07:47;;;;;;;10.65;2.00;;;;;;;14.99;56.18;101736.16;10558927;28;20056;-81
2024/01/27 04:13:10;;;;;;;7.22;1.88;;;;;;;14.98;55.33;101727.31;10548156;28;20041;-81
2024/01/27 04:18:34;;;;;;;5.60;2.40;;;;;;;15.02;54.27;101731.81;10513214;28;20051;-81
2024/01/27 04:23:56;;;;;;;5.30;2.38;;;;;;;14.91;53.57;101754.69;10478327;28;20060;-81
2024/01/27 04:29:18;;;;;;;6.47;3.17;;;;;;;14.91;51.39;101760.00;10542508;28;20051;-81
2024/01/27 04:34:42;;;;;;;8.35;4.18;;;;;;;14.99;51.94;101770.75;10520340;28;20068;-81
2024/01/27 04:40:06;;;;;;;6.38;3.05;;;;;;;14.71;52.33;101777.41;10520367;28;20048;-82
2024/01/27 04:45:29;;;;;;;7.57;3.85;;;;;;;14.31;52.73;101779.41;10571146;27;20160;-81
2024/01/27 04:50:53;;;;;;;3.20;1.70;;;;;;;14.28;50.65;101774.06;10592403;27;20143;-80
2024/01/27 04:56:16;;;;;;;4.15;1.95;;;;;;;13.94;51.93;101788.50;10592022;27;20514;-81
2024/01/27 05:01:38;;;;;;;19.70;7.68;;;;;;;13.91;50.86;101792.88;10606956;27;20096;-81
2024/01/27 05:07:02;;;;;;;5.63;3.63;;;;;;;13.91;49.26;101792.88;10589390;27;20039;-81
2024/01/27 05:12:24;;;;;;;3.10;1.75;;;;;;;13.68;48.83;101800.41;10606234;27;20079;-80
2024/01/27 05:17:47;;;;;;;4.40;1.63;;;;;;;13.41;50.08;101803.38;10605720;27;20147;-80
2024/01/27 05:23:11;;;;;;;5.35;2.13;;;;;;;13.30;50.55;101804.03;10579286;27;20055;-81
2024/01/27 05:28:34;;;;;;;3.58;1.63;;;;;;;13.27;50.59;101802.19;10555658;28;20097;-80
2024/01/27 05:33:57;;;;;;;8.77;2.63;;;;;;;13.48;48.30;101800.00;10571210;27;20139;-81
2024/01/27 05:39:21;;;;;;;5.72;3.13;;;;;;;13.61;47.24;101787.88;10611435;27;20437;-80
2024/01/27 05:44:45;;;;;;;8.85;4.85;;;;;;;13.42;47.42;101793.66;10638344;27;20061;-80
2024/01/27 05:50:08;;;;;;;20.45;12.25;;;;;;;13.35;47.38;101797.97;10604900;27;20047;-80
2024/01/27 05:55:33;;;;;;;3.75;2.78;;;;;;;13.30;47.03;101793.41;10597002;27;20483;-81
2024/01/27 06:00:56;;;;;;;5.03;3.13;;;;;;;13.28;46.50;101796.03;10596238;27;20096;-81
2024/01/27 06:06:18;;;;;;;7.45;5.63;;;;;;;13.61;44.56;101798.47;10609602;27;20039;-81
2024/01/27 06:11:42;;;;;;;3.65;2.35;;;;;;;14.87;42.23;101814.00;10596024;27;20488;-80
2024/01/27 06:17:06;;;;;;;5.78;3.28;;;;;;;18.18;37.06;101832.84;10599592;27;20055;-81
2024/01/27 06:22:28;;;;;;;3.75;2.90;;;;;;;20.06;34.13;101836.06;10607735;27;20050;-81
2024/01/27 06:27:52;;;;;;;8.90;4.13;;;;;;;21.12;32.50;101815.53;10626557;27;20070;-82
2024/01/27 06:33:15;;;;;;;13.25;4.35;;;;;;;21.58;32.16;101827.53;10638284;27;20052;-80
2024/01/27 06:38:38;;;;;;;4.72;2.88;;;;;;;;;;10610137;27;20062;-81
2024/01/27 06:44:03;;;;;;;5.72;4.53;;;;;;;22.15;30.28;101819.59;10625034;27;20494;-82
2024/01/27 06:49:25;;;;;;;25.52;16.45;;;;;;;22.80;29.44;101839.19;10599643;27;20051;-81
2024/01/27 06:54:48;;;;;;;7.28;5.20;;;;;;;22.02;29.90;101848.47;10612943;27;20415;-81
2024/01/27 07:00:15;;;;;;;7.25;4.88;;;;;;;22.75;29.28;101844.66;10598606;27;20039;-81
2024/01/27 07:05:40;;;;;;;7.00;5.00;;;;;;;20.95;32.09;101843.41;10610758;27;20039;-81
2024/01/27 07:11:02;;;;;;;6.65;5.60;;;;;;;23.14;29.67;101836.78;10597581;27;20092;-81
2024/01/27 07:16:26;;;;;;;15.48;9.40;;;;;;;22.00;30.38;101838.63;10619766;27;20051;-82
2024/01/27 07:21:49;;;;;;;10.50;5.72;;;;;;;23.21;29.34;101833.03;10619756;27;20498;-82
2024/01/27 07:27:14;;;;;;;5.85;3.83;;;;;;;24.51;27.59;101854.50;10621355;27;20035;-81
2024/01/27 07:32:38;;;;;;;4.68;2.10;;;;;;;22.44;28.93;101855.03;10625756;27;20118;-81
2024/01/27 07:38:00;;;;;;;9.65;5.95;;;;;;;23.94;27.95;101851.31;10611555;27;20130;-80
2024/01/27 07:43:25;;;;;;;8.00;4.13;;;;;;;22.97;29.11;101858.66;10625789;27;20063;-81
2024/01/27 07:48:50;;;;;;;7.55;5.70;;;;;;;24.58;27.11;101858.81;10595904;27;20054;-80
2024/01/27 07:54:12;;;;;;;8.30;5.47;;;;;;;25.28;26.42;101884.03;10622622;27;20047;-82
2024/01/27 07:59:35;;;;;;;6.72;5.30;;;;;;;23.42;28.30;101889.25;10578613;27;20060;-82
2024/01/27 08:04:59;;;;;;;7.68;4.47;;;;;;;26.93;25.31;101886.22;10610469;27;20058;-81
2024/01/27 08:10:21;;;;;;;6.82;4.75;;;;;;;25.54;26.14;101883.28;10603319;27;20129;-80
2024/01/27 08:15:44;;;;;;;8.55;5.47;;;;;;;23.20;29.41;101898.63;10599677;27;20051;-78
2024/01/27 08:21:07;;;;;;;6.22;4.55;;;;;;;24.02;28.73;101876.31;10589250;27;20043;-79
2024/01/27 08:26:30;;;;;;;7.50;3.97;;;;;;;22.72;29.42;101892.25;10643690;27;20555;-80
2024/01/27 08:31:52;;;;;;;10.77;8.20;;;;;;;23.47;29.43;101889.13;10631002;27;20042;-80
2024/01/27 08:37:21;;;;;;;8.73;6.03;;;;;;;26.03;26.53;101877.38;10642026;27;20158;-82
2024/01/27 08:42:44;;;;;;;10.38;8.82;;;;;;;27.18;25.86;101883.53;10644339;27;20047;-80
2024/01/27 08:48:07;;;;;;;6.50;3.50;;;;;;;28.42;24.06;101883.34;10625076;27;20047;-80
2024/01/27 08:53:32;;;;;;;6.82;3.97;;;;;;;26.95;25.80;101881.63;10615773;27;20054;-78
2024/01/27 08:58:54;;;;;;;6.88;3.25;;;;;;;29.85;23.49;101881.69;10594416;27;20050;-77
2024/01/27 09:04:16;;;;;;;14.05;8.55;;;;;;;32.11;21.67;101869.97;10587134;27;20039;-78
2024/01/27 09:09:40;;;;;;;15.18;9.23;;;;;;;27.13;25.53;101865.66;10583545;27;20039;-78
2024/01/27 09:15:03;;;;;;;22.75;17.75;;;;;;;23.66;29.88;101883.38;10580874;27;20100;-79
2024/01/27 09:20:26;;;;;;;8.20;3.25;;;;;;;26.58;26.45;101870.25;10606116;27;20039;-80
2024/01/27 09:25:50;;;;;;;12.15;9.02;;;;;;;27.54;25.74;101870.50;10592159;27;20047;-77
2024/01/27 09:31:13;;;;;;;6.22;3.67;;;;;;;27.97;25.58;101856.16;10601473;27;20043;-78
2024/01/27 09:36:35;;;;;;;7.10;4.03;;;;;;;26.93;26.05;101869.06;10568587;27;20046;-80
2024/01/27 09:42:01;;;;;;;8.90;4.50;;;;;;;26.53;27.21;101881.22;10585504;27;20054;-78
2024/01/27 09:47:24;;;;;;;4.43;2.60;;;;;;;27.41;25.90;101858.31;10567180;27;20465;-77
2024/01/27 09:52:47;;;;;;;9.07;5.43;;;;;;;25.54;27.69;101863.47;10542516;28;20039;-78
2024/01/27 09:58:12;;;;;;;9.85;4.90;;;;;;;22.91;30.84;101872.19;10540870;28;20079;-78
2024/01/27 10:03:36;;;;;;;11.30;5.25;;;;;;;23.61;30.49;101861.03;10540845;28;20096;-81
2024/01/27 10:08:58;;;;;;;4.43;2.80;;;;;;;24.54;29.15;101838.22;10562940;28;20083;-76
2024/01/27 10:14:22;;;;;;;6.20;3.25;;;;;;;22.14;31.98;101842.03;10579757;28;20618;-78
2024/01/27 10:19:45;;;;;;;7.55;2.42;;;;;;;21.61;33.21;101846.28;10561017;28;20055;-77
2024/01/27 10:25:08;;;;;;;4.53;1.88;;;;;;;25.46;28.29;101817.75;10549409;27;20064;-77
2024/01/27 10:30:32;;;;;;;6.72;2.25;;;;;;;23.27;30.83;101822.13;10550319;28;20052;-77
2024/01/27 10:35:59;;;;;;;6.65;3.00;;;;;;;21.59;32.49;101831.13;10570070;28;20499;-75
2024/01/27 10:41:26;;;;;;;7.63;3.47;;;;;;;24.11;29.93;101802.34;10558453;28;20568;-76
2024/01/27 10:46:51;;;;;;;7.40;3.17;;;;;;;25.66;28.09;101803.66;10567039;27;20062;-78
2024/01/27 10:52:20;;;;;;;12.90;8.63;;;;;;;24.03;30.21;101802.53;10572039;27;20550;-81
2024/01/27 10:57:43;;;;;;;7.05;3.28;;;;;;;24.10;30.09;101804.16;10598343;27;20500;-77
2024/01/27 11:03:11;;;;;;;8.20;2.92;;;;;;;22.86;31.88;101796.88;10590789;27;20047;-76
2024/01/27 11:08:35;;;;;;;10.80;5.25;;;;;;;22.01;33.19;101790.22;10587326;27;20054;-77
2024/01/27 11:13:57;;;;;;;10.43;5.30;;;;;;;21.60;34.42;101781.81;10577773;27;20569;-80
2024/01/27 11:19:22;;;;;;;13.52;9.63;;;;;;;22.98;33.00;101775.09;10598317;27;20051;-82
2024/01/27 11:24:45;;;;;;;13.90;9.77;;;;;;;21.78;34.84;101774.41;10604083;27;20088;-78
2024/01/27 11:30:24;;;;;;;20.13;11.77;;;;;;;20.80;36.53;101778.28;10570453;27;20046;-77
2024/01/27 11:35:48;;;;;;;24.40;15.32;;;;;;;20.78;36.72;101769.34;10592004;27;20051;-75
2024/01/27 11:41:11;;;;;;;14.55;9.88;;;;;;;21.95;36.23;101770.56;10614892;27;20777;-78
2024/01/27 11:46:33;;;;;;;8.70;4.53;;;;;;;22.66;34.83;101764.00;10602351;27;20079;-78
2024/01/27 11:51:57;;;;;;;17.35;10.90;;;;;;;21.58;36.21;101783.66;10583009;27;20061;-78
2024/01/27 11:57:20;;;;;;;12.68;7.13;;;;;;;21.78;36.08;101770.81;10550671;27;20419;-78
2024/01/27 12:02:42;;;;;;;13.20;7.32;;;;;;;22.02;35.62;101762.41;10576896;28;20051;-78
2024/01/27 12:08:09;;;;;;;6.38;3.45;;;;;;;21.95;35.80;101762.50;10561346;28;20525;-77
2024/01/27 12:13:31;;;;;;;9.50;4.35;;;;;;;21.80;35.42;101767.19;10561398;28;20067;-78
2024/01/27 12:18:55;;;;;;;13.02;7.68;;;;;;;21.80;35.38;101756.41;10602168;27;20630;-78
2024/01/27 12:24:19;;;;;;;8.10;4.95;;;;;;;22.01;34.76;101759.75;10603452;27;20043;-78
2024/01/27 12:29:42;;;;;;;9.43;5.07;;;;;;;21.94;34.43;101764.28;10588614;27;20043;-78
2024/01/27 12:35:06;;;;;;;10.35;7.32;;;;;;;21.50;34.04;101762.25;10588517;27;20051;-78
2024/01/27 12:40:30;;;;;;;9.60;6.47;;;;;;;21.08;34.52;101763.63;10554586;28;20040;-78
2024/01/27 12:45:53;;;;;;;14.80;8.73;;;;;;;20.67;34.46;101761.41;10570809;27;20055;-77
2024/01/27 12:51:15;;;;;;;16.50;11.32;;;;;;;20.56;33.95;101756.13;10584045;27;20055;-76
2024/01/27 12:56:39;;;;;;;11.32;5.55;;;;;;;20.35;34.36;101775.09;10601145;27;20051;-78
2024/01/27 13:02:05;;;;;;;10.18;3.70;;;;;;;20.19;35.31;101768.94;10588314;27;20043;-79
2024/01/27 13:07:27;;;;;;;9.45;4.50;;;;;;;19.96;35.67;101767.31;10594231;27;20043;-77
2024/01/27 13:12:51;;;;;;;6.15;3.20;;;;;;;19.40;36.64;101779.22;10575490;27;20047;-77
2024/01/27 13:18:13;;;;;;;6.93;3.88;;;;;;;19.03;36.28;101773.97;10596915;28;20046;-77
2024/01/27 13:23:36;;;;;;;12.38;5.00;;;;;;;18.72;36.23;101782.97;10583302;27;20398;-76
2024/01/27 13:29:00;;;;;;;10.73;5.20;;;;;;;18.53;36.67;101790.09;10597904;28;20588;-76
2024/01/27 13:34:22;;;;;;;6.47;3.42;;;;;;;18.26;36.13;101793.66;10599406;28;20047;-76
2024/01/27 13:39:45;;;;;;;26.25;12.20;;;;;;;18.13;36.56;101794.53;10585285;28;20039;-77
2024/01/27 13:45:11;;;;;;;6.20;3.63;;;;;;;17.99;36.73;101804.31;10586494;27;20101;-76
2024/01/27 13:50:33;;;;;;;7.32;3.33;;;;;;;17.85;37.09;101795.41;10553690;27;20392;-76
2024/01/27 13:55:56;;;;;;;10.38;5.78;;;;;;;17.71;36.78;101794.47;10559417;27;20075;-80
2024/01/27 14:01:20;;;;;;;11.43;6.07;;;;;;;17.48;37.59;101797.00;10535143;27;20051;-80
2024/01/27 14:06:43;;;;;;;6.18;3.17;;;;;;;17.38;38.33;101803.22;10536516;28;20047;-77
2024/01/27 14:12:06;;;;;;;7.13;1.90;;;;;;;17.25;38.45;101799.59;10545395;28;20059;-78
2024/01/27 14:17:30;;;;;;;6.32;3.15;;;;;;;16.95;39.14;101807.41;10539241;28;20051;-77
2024/01/27 14:22:56;;;;;;;6.10;4.00;;;;;;;16.94;39.17;101808.28;10520870;28;20054;-78
2024/01/27 14:28:19;;;;;;;9.63;4.78;;;;;;;16.93;39.61;101819.88;10550764;28;20148;-78
2024/01/27 14:33:43;;;;;;;11.80;4.82;;;;;;;17.10;39.73;101820.84;10559063;28;20062;-78
2024/01/27 14:39:10;;;;;;;11.73;5.30;;;;;;;17.20;40.38;101820.00;10577429;28;20048;-78
2024/01/27 14:44:33;;;;;;;7.13;3.20;;;;;;;17.08;40.86;101820.84;10567526;27;20073;-77
2024/01/27 14:49:57;;;;;;;7.28;2.75;;;;;;;16.93;41.04;101825.19;10589304;27;20086;-78
2024/01/27 14:55:20;;;;;;;10.13;2.63;;;;;;;16.63;41.18;101823.19;10584027;27;20437;-78
2024/01/27 15:00:42;;;;;;;11.75;7.72;;;;;;;16.42;40.94;101828.28;10620496;27;20051;-79
2024/01/27 15:06:09;;;;;;;9.38;4.47;;;;;;;16.33;40.93;101826.47;10560035;28;20055;-78
2024/01/27 15:11:31;;;;;;;8.10;3.40;;;;;;;16.16;40.93;101823.63;10576618;28;20095;-79
2024/01/27 15:16:57;;;;;;;7.30;2.60;;;;;;;15.84;41.32;101820.63;10564993;28;20112;-78
2024/01/27 15:22:22;;;;;;;4.32;2.30;;;;;;;15.54;41.71;101822.94;10575515;28;20155;-79
2024/01/27 15:27:44;;;;;;;4.75;2.00;;;;;;;15.02;42.13;101819.56;10563913;28;20442;-76
2024/01/27 15:33:07;;;;;;;4.65;2.15;;;;;;;14.97;42.32;101810.59;10574807;28;20115;-78
2024/01/27 15:38:31;;;;;;;6.60;3.30;;;;;;;14.94;41.78;101815.91;10579492;27;20113;-78
2024/01/27 15:43:54;;;;;;;5.97;3.05;;;;;;;14.58;42.68;101821.53;10568331;27;20117;-78
2024/01/27 15:49:18;;;;;;;7.38;3.05;;;;;;;14.57;43.58;101814.41;10560210;28;20399;-78
2024/01/27 15:54:43;;;;;;;5.97;3.40;;;;;;;14.48;43.82;101808.06;10558941;28;20161;-78
2024/01/27 16:00:10;;;;;;;5.28;3.60;;;;;;;14.18;44.26;101817.25;10552748;27;20047;-78
2024/01/27 16:05:33;;;;;;;7.47;3.58;;;;;;;13.96;45.12;101813.34;10556015;28;20092;-78
2024/01/27 16:10:57;;;;;;;12.45;5.03;;;;;;;13.88;45.40;101816.69;10556367;28;20059;-80
2024/01/27 16:16:23;;;;;;;11.32;6.38;;;;;;;13.94;45.56;101816.81;10536300;28;20054;-80
2024/01/27 16:21:46;;;;;;;32.80;11.77;;;;;;;13.98;45.48;101816.00;10556600;28;20043;-76
2024/01/27 16:27:10;;;;;;;39.70;15.93;;;;;;;13.84;46.13;101805.16;10565724;28;20134;-77
2024/01/27 16:32:33;;;;;;;9.82;5.60;;;;;;;13.81;46.55;101801.53;10534609;27;20040;-78
2024/01/27 16:37:55;;;;;;;12.45;6.88;;;;;;;13.87;46.74;101814.91;10556167;27;20050;-76
2024/01/27 16:43:19;;;;;;;312.05;142.68;;;;;;;13.86;47.48;101821.97;10544924;27;20055;-77
2024/01/27 16:48:43;;;;;;;101.80;47.47;;;;;;;13.63;47.85;101823.31;10535753;28;20467;-76
2024/01/27 16:54:05;;;;;;;64.00;30.58;;;;;;;13.35;49.35;101815.63;10558224;28;20062;-76
2024/01/27 16:59:30;;;;;;;58.63;20.13;;;;;;;13.20;50.44;101812.63;10558180;28;20094;-77
2024/01/27 17:04:52;;;;;;;20.15;9.95;;;;;;;13.22;51.31;101821.53;10566604;28;20051;-76
2024/01/27 17:10:15;;;;;;;48.47;18.13;;;;;;;13.39;51.57;101815.72;10554738;28;20043;-76
2024/01/27 17:15:41;;;;;;;17.73;11.65;;;;;;;13.39;52.82;101818.38;10542115;28;20520;-77
2024/01/27 17:21:03;;;;;;;83.78;26.30;;;;;;;13.59;53.16;101815.25;10546871;28;20051;-77
2024/01/27 17:26:27;;;;;;;11.35;5.95;;;;;;;13.80;52.56;101811.25;10543864;28;20167;-76
2024/01/27 17:31:51;;;;;;;13.45;9.93;;;;;;;14.04;52.46;101829.41;10535212;28;20057;-78
2024/01/27 17:37:14;;;;;;;9.88;6.00;;;;;;;14.09;52.50;101827.72;10557593;28;20044;-78
2024/01/27 17:42:37;;;;;;;12.93;9.15;;;;;;;14.24;52.07;101833.28;10538470;28;20052;-76
2024/01/27 17:48:02;;;;;;;9.88;8.13;;;;;;;14.27;53.10;101836.03;10560923;28;20104;-76
2024/01/27 17:53:24;;;;;;;13.93;7.05;;;;;;;14.26;53.60;101846.63;10606576;28;20047;-77
2024/01/27 17:58:47;;;;;;;12.88;5.93;;;;;;;14.05;55.98;101841.81;10599507;28;20046;-77
2024/01/27 18:04:11;;;;;;;10.00;5.72;;;;;;;14.29;55.69;101855.56;10588344;28;20471;-77
2024/01/27 18:09:34;;;;;;;60.22;23.05;;;;;;;14.28;55.64;101847.53;10606442;28;20039;-76
2024/01/27 18:14:56;;;;;;;54.85;24.60;;;;;;;14.36;55.63;101852.13;10605563;28;20071;-76
2024/01/27 18:20:20;;;;;;;43.05;19.08;;;;;;;14.36;55.49;101852.13;10594287;27;20054;-77
2024/01/27 18:25:43;;;;;;;18.00;10.30;;;;;;;14.40;55.56;101849.56;10603724;28;20576;-77
2024/01/27 18:31:06;;;;;;;24.20;8.50;;;;;;;14.56;54.43;101846.31;10597662;27;20398;-75
2024/01/27 18:36:30;;;;;;;176.90;54.28;;;;;;;14.25;56.43;101861.66;10584581;27;20437;-75
2024/01/27 18:41:53;;;;;;;152.40;47.88;;;;;;;13.78;60.20;101860.78;10585076;27;20042;-76
2024/01/27 18:47:15;;;;;;;63.05;21.20;;;;;;;13.40;64.20;101862.59;10589098;27;20047;-76
2024/01/27 18:52:40;;;;;;;11.70;5.13;;;;;;;13.18;66.76;101865.66;10591966;27;20050;-76
2024/01/27 18:58:03;;;;;;;6.05;2.88;;;;;;;13.42;68.60;101871.50;10604167;27;20047;-76
2024/01/27 19:03:25;;;;;;;4.63;2.95;;;;;;;13.42;68.12;101871.50;10614196;27;20042;-76
2024/01/27 19:08:50;;;;;;;5.22;3.15;;;;;;;13.23;70.13;101869.28;10597138;27;20043;-76
2024/01/27 19:14:12;;;;;;;19.92;6.95;;;;;;;13.25;70.88;101875.53;10612239;27;20049;-76
2024/01/27 19:19:35;;;;;;;8.82;3.28;;;;;;;13.29;71.28;101874.75;10600833;27;20053;-76
2024/01/27 19:24:59;;;;;;;8.25;3.47;;;;;;;13.43;70.88;101877.69;10599169;27;20067;-78
2024/01/27 19:30:22;;;;;;;8.55;3.70;;;;;;;13.52;70.70;101860.19;10591372;27;20064;-75
2024/01/27 19:35:44;;;;;;;9.18;3.53;;;;;;;13.71;70.00;101866.81;10595030;27;20448;-77
2024/01/27 19:41:11;;;;;;;5.53;3.17;;;;;;;13.74;70.10;101861.56;10601058;27;20458;-77
2024/01/27 19:46:33;;;;;;;11.82;3.20;;;;;;;13.70;71.79;101859.72;10582446;27;20055;-77
2024/01/27 19:51:56;;;;;;;7.13;2.90;;;;;;;13.77;71.73;101868.69;10610932;27;20051;-77
2024/01/27 19:57:20;;;;;;;4.88;3.00;;;;;;;13.76;72.51;101872.22;10598848;27;20502;-78
2024/01/27 20:02:42;;;;;;;18.23;6.13;;;;;;;13.81;72.06;101870.53;10587328;27;20551;-77
2024/01/27 20:08:08;;;;;;;55.13;17.52;;;;;;;13.98;72.30;101871.75;10601930;27;20138;-77
2024/01/27 20:13:32;;;;;;;9.35;4.07;;;;;;;13.76;73.93;101861.59;10598784;27;20171;-77
2024/01/27 20:18:55;;;;;;;5.95;3.25;;;;;;;13.64;75.65;101854.28;10598945;27;20092;-78
2024/01/27 20:24:17;;;;;;;41.83;13.38;;;;;;;13.70;75.70;101851.75;10615188;27;20491;-78
2024/01/27 20:29:41;;;;;;;47.83;14.25;;;;;;;13.74;76.51;101855.34;10588821;27;20109;-78
2024/01/27 20:35:04;;;;;;;24.15;9.18;;;;;;;13.84;75.90;101855.59;10599610;27;20051;-78
2024/01/27 20:40:27;;;;;;;37.25;13.10;;;;;;;13.62;81.28;101858.66;10604727;27;20055;-79
2024/01/27 20:45:52;;;;;;;16.13;8.23;;;;;;;13.63;89.20;101865.75;10590825;27;20058;-78
2024/01/27 20:51:14;;;;;;;15.10;6.13;;;;;;;13.49;90.78;101859.25;10597808;27;20046;-77
2024/01/27 20:56:37;;;;;;;23.42;9.38;;;;;;;13.34;96.59;101875.72;10610704;27;20043;-78
2024/01/27 21:02:03;;;;;;;19.50;7.47;;;;;;;13.23;100.00;101881.66;10606614;27;20415;-79
2024/01/27 21:07:25;;;;;;;21.02;12.02;;;;;;;13.19;100.00;101887.75;10587910;27;20039;-79
2024/01/27 21:12:49;;;;;;;18.42;11.43;;;;;;;13.23;100.00;101897.56;10593729;27;20487;-78
2024/01/27 21:18:13;;;;;;;17.92;11.68;;;;;;;13.08;100.00;101876.84;10594033;27;20039;-78
2024/01/27 21:23:36;;;;;;;15.55;8.73;;;;;;;12.88;100.00;101881.69;10594847;28;20044;-78
2024/01/27 21:28:58;;;;;;;18.00;11.00;;;;;;;12.84;100.00;101877.19;10611752;28;20043;-77
2024/01/27 21:34:22;;;;;;;41.33;12.80;;;;;;;13.03;100.00;101868.81;10584728;28;20046;-78
2024/01/27 21:39:45;;;;;;;28.63;12.80;;;;;;;12.85;100.00;101864.84;10608365;28;20103;-79
2024/01/27 21:45:08;;;;;;;41.40;16.33;;;;;;;12.77;100.00;101876.13;10582912;28;20047;-78
2024/01/27 21:50:32;;;;;;;46.40;16.52;;;;;;;12.76;100.00;101879.63;10564161;28;20044;-78
2024/01/27 21:55:55;;;;;;;27.98;14.43;;;;;;;12.81;100.00;101876.19;10566591;28;20054;-78
2024/01/27 22:01:18;;;;;;;33.30;12.35;;;;;;;12.96;100.00;101874.81;10547058;28;20043;-78
2024/01/27 22:06:42;;;;;;;18.00;8.00;;;;;;;12.75;100.00;101872.53;10608939;27;20047;-79
2024/01/27 22:12:05;;;;;;;33.83;12.73;;;;;;;12.51;100.00;101864.00;10580138;27;20565;-79
2024/01/27 22:17:28;;;;;;;10.95;5.90;;;;;;;12.31;100.00;101857.28;10595293;27;20089;-79
2024/01/27 22:22:52;;;;;;;11.20;6.40;;;;;;;12.00;100.00;101859.97;10564730;27;20052;-79
2024/01/27 22:28:15;;;;;;;8.43;4.90;;;;;;;12.10;100.00;101849.66;10566387;28;20060;-79
2024/01/27 22:33:37;;;;;;;13.73;5.78;;;;;;;11.72;100.00;101855.63;10547219;27;20083;-78
2024/01/27 22:39:02;;;;;;;27.67;11.57;;;;;;;11.55;100.00;101850.75;10566801;28;20093;-79
2024/01/27 22:44:24;;;;;;;20.20;9.00;;;;;;;11.47;100.00;101844.34;10581586;27;20059;-79
2024/01/27 22:49:47;;;;;;;52.38;26.13;;;;;;;11.39;100.00;101843.22;10572764;28;20039;-78
2024/01/27 22:55:13;;;;;;;17.00;10.85;;;;;;;11.16;100.00;101837.22;10554426;28;20047;-78
2024/01/27 23:00:39;;;;;;;12.10;8.20;;;;;;;11.20;100.00;101840.88;10558316;28;20058;-77
2024/01/27 23:06:01;;;;;;;12.10;6.65;;;;;;;11.14;100.00;101838.97;10563967;28;20078;-77
2024/01/27 23:11:25;;;;;;;10.13;4.70;;;;;;;11.28;100.00;101844.66;10577831;28;20053;-77
2024/01/27 23:16:48;;;;;;;77.45;23.70;;;;;;;10.86;100.00;101827.47;10577390;28;20104;-77
2024/01/27 23:22:11;;;;;;;20.98;9.65;;;;;;;11.16;100.00;101824.03;10561660;28;20044;-78
2024/01/27 23:27:35;;;;;;;9.00;5.50;;;;;;;11.59;100.00;101818.25;10549208;28;20499;-78
2024/01/27 23:32:57;;;;;;;12.25;7.60;;;;;;;11.85;100.00;101818.13;10563588;28;20048;-78
2024/01/27 23:38:20;;;;;;;11.88;5.88;;;;;;;11.84;100.00;101818.97;10563565;28;20047;-77
2024/01/27 23:43:44;;;;;;;11.98;4.90;;;;;;;11.72;100.00;101819.50;10535339;28;20043;-78
2024/01/27 23:49:07;;;;;;;38.70;12.13;;;;;;;11.99;100.00;101819.38;10575868;28;20146;-77
2024/01/27 23:54:29;;;;;;;35.28;11.63;;;;;;;12.07;100.00;101811.66;10550902;28;20050;-77
2024/01/27 23:59:54;;;;;;;17.90;6.88;;;;;;;12.08;100.00;101816.09;10558113;28;20051;-77
